createdAt,value
2023-12-01T00:01:44.719Z,36.30
2023-12-01T00:04:13.902Z,38.80
2023-12-01T00:06:43.346Z,38.90
2023-12-01T00:09:12.538Z,40.50
2023-12-01T00:11:41.913Z,37.70
2023-12-01T00:14:10.668Z,38.90
2023-12-01T00:16:40.384Z,38.60
2023-12-01T00:19:09.794Z,45.40
2023-12-01T00:21:39.119Z,39.70
2023-12-01T00:24:09.488Z,44.90
2023-12-01T00:26:39.437Z,37.50
2023-12-01T00:29:08.710Z,34.70
2023-12-01T00:31:38.054Z,35.50
2023-12-01T00:34:07.341Z,33.80
2023-12-01T00:36:36.808Z,33.80
2023-12-01T00:39:08.186Z,31.00
2023-12-01T00:41:37.645Z,32.80
2023-12-01T00:44:07.065Z,34.00
2023-12-01T00:46:36.186Z,36.20
2023-12-01T00:49:05.582Z,33.50
2023-12-01T00:51:34.825Z,32.30
2023-12-01T00:54:04.318Z,33.80
2023-12-01T00:56:33.270Z,35.90
2023-12-01T00:59:05.407Z,40.30
2023-12-01T04:01:46.003Z,30.90
2023-12-01T04:04:15.467Z,30.80
2023-12-01T04:06:45.357Z,31.70
2023-12-01T04:09:15.355Z,31.30
2023-12-01T04:11:44.861Z,31.60
2023-12-01T04:14:13.466Z,30.80
2023-12-01T04:16:42.390Z,35.60
2023-12-01T04:19:11.683Z,38.30
2023-12-01T04:21:40.393Z,30.50
2023-12-01T04:24:09.133Z,33.60
2023-12-01T04:26:38.015Z,36.60
2023-12-01T04:29:06.587Z,28.90
2023-12-01T04:31:35.808Z,28.90
2023-12-01T04:34:07.670Z,29.90
2023-12-01T04:36:37.025Z,31.80
2023-12-01T04:39:06.414Z,35.30
2023-12-01T04:41:35.916Z,37.50
2023-12-01T04:44:05.420Z,36.20
2023-12-01T04:46:34.508Z,33.30
2023-12-01T04:49:04.444Z,36.90
2023-12-01T04:51:33.684Z,32.80
2023-12-01T04:54:08.460Z,37.00
2023-12-01T04:56:38.142Z,41.90
2023-12-01T04:59:10.590Z,43.20
2023-12-01T05:01:42.434Z,48.30
2023-12-01T05:04:14.093Z,43.30
2023-12-01T05:06:45.974Z,42.20
2023-12-01T05:09:24.226Z,43.80
2023-12-01T05:11:53.257Z,39.40
2023-12-01T05:14:21.954Z,51.80
2023-12-01T05:16:51.206Z,57.30
2023-12-01T05:19:20.206Z,54.50
2023-12-01T05:21:49.640Z,55.50
2023-12-01T05:24:18.319Z,48.30
2023-12-01T05:26:47.380Z,53.30
2023-12-01T05:29:16.635Z,53.70
2023-12-01T05:31:45.957Z,52.50
2023-12-01T05:34:15.412Z,53.80
2023-12-01T05:36:44.571Z,54.70
2023-12-01T05:39:14.853Z,46.60
2023-12-01T05:41:44.951Z,38.80
2023-12-01T05:44:14.216Z,49.80
2023-12-01T05:46:43.917Z,66.40
2023-12-01T05:49:13.396Z,50.10
2023-12-01T05:51:42.678Z,55.10
2023-12-01T05:54:11.975Z,80.00
2023-12-01T05:56:41.373Z,69.90
2023-12-01T05:59:10.838Z,75.80
2023-12-01T06:01:39.673Z,69.60
2023-12-01T06:04:09.172Z,78.60
2023-12-01T06:06:38.000Z,82.90
2023-12-01T06:09:09.407Z,74.40
2023-12-01T06:11:39.595Z,82.50
2023-12-01T06:14:08.715Z,80.60
2023-12-01T06:16:37.657Z,67.70
2023-12-01T06:19:08.175Z,65.50
2023-12-01T06:21:41.563Z,67.90
2023-12-01T06:24:10.705Z,72.60
2023-12-01T06:26:41.653Z,63.50
2023-12-01T06:29:10.611Z,62.50
2023-12-01T06:31:40.021Z,67.20
2023-12-01T06:34:09.340Z,86.40
2023-12-01T06:36:38.786Z,97.80
2023-12-01T06:39:11.976Z,90.40
2023-12-01T06:41:42.926Z,90.70
2023-12-01T06:44:12.057Z,76.00
2023-12-01T06:46:44.009Z,79.10
2023-12-01T06:49:14.116Z,77.40
2023-12-01T06:51:44.108Z,95.60
2023-12-01T06:55:22.278Z,105.00
2023-12-01T06:57:52.292Z,92.80
2023-12-01T07:00:32.274Z,76.10
2023-12-01T07:03:09.986Z,69.30
2023-12-01T07:05:42.086Z,67.70
2023-12-01T07:08:14.687Z,64.50
2023-12-01T07:10:46.314Z,72.60
2023-12-01T07:13:15.219Z,80.50
2023-12-01T07:15:45.477Z,95.00
2023-12-01T07:18:14.770Z,91.70
2023-12-01T07:20:45.352Z,88.70
2023-12-01T07:23:14.449Z,99.50
2023-12-01T07:25:48.612Z,88.80
2023-12-01T07:28:17.846Z,83.50
2023-12-01T07:30:48.491Z,90.00
2023-12-01T07:33:18.464Z,92.00
2023-12-01T07:35:47.811Z,82.60
2023-12-01T07:38:17.624Z,93.60
2023-12-01T07:40:47.891Z,120.30
2023-12-01T07:43:16.814Z,127.60
2023-12-01T07:45:45.991Z,96.80
2023-12-01T07:48:15.249Z,122.20
2023-12-01T07:50:46.608Z,118.30
2023-12-01T07:53:15.760Z,144.80
2023-12-01T07:55:44.618Z,152.60
2023-12-01T07:58:13.539Z,142.10
2023-12-01T08:00:42.898Z,119.50
2023-12-01T08:03:12.210Z,97.30
2023-12-01T08:05:41.624Z,100.40
2023-12-01T08:08:10.981Z,108.70
2023-12-01T08:10:39.828Z,114.40
2023-12-01T08:13:10.047Z,141.20
2023-12-01T08:15:39.856Z,140.70
2023-12-01T08:18:08.864Z,93.00
2023-12-01T08:20:37.939Z,91.20
2023-12-01T08:23:07.515Z,98.10
2023-12-01T08:25:36.933Z,86.70
2023-12-01T08:28:05.759Z,80.80
2023-12-01T08:30:34.808Z,79.30
2023-12-01T08:33:03.600Z,92.00
2023-12-01T08:35:32.962Z,122.30
2023-12-01T08:38:01.901Z,107.30
2023-12-01T08:40:30.712Z,98.30
2023-12-01T08:43:12.896Z,81.90
2023-12-01T08:45:43.035Z,93.80
2023-12-01T08:48:14.418Z,81.80
2023-12-01T08:50:45.750Z,90.40
2023-12-01T08:53:14.347Z,80.70
2023-12-01T08:55:42.936Z,88.20
2023-12-01T08:58:12.273Z,89.60
2023-12-01T09:00:41.379Z,67.40
2023-12-01T09:03:11.151Z,79.50
2023-12-01T09:05:39.836Z,72.40
2023-12-01T09:08:09.891Z,67.30
2023-12-01T09:10:39.788Z,61.40
2023-12-01T09:13:10.128Z,51.90
2023-12-01T09:15:39.430Z,57.90
2023-12-01T09:18:08.848Z,58.20
2023-12-01T09:20:38.661Z,63.40
2023-12-01T09:23:08.080Z,54.70
2023-12-01T09:25:37.461Z,37.20
2023-12-01T09:28:07.868Z,41.40
2023-12-01T09:30:38.661Z,39.10
2023-12-01T09:33:11.306Z,31.50
2023-12-01T09:35:55.443Z,38.60
2023-12-01T09:38:27.909Z,44.00
2023-12-01T09:40:58.380Z,54.20
2023-12-01T09:43:28.482Z,35.10
2023-12-01T09:45:58.021Z,37.70
2023-12-01T09:48:27.257Z,38.20
2023-12-01T09:50:57.328Z,46.40
2023-12-01T09:53:27.210Z,42.30
2023-12-01T09:56:02.023Z,42.70
2023-12-01T09:58:37.398Z,44.20
2023-12-01T10:01:08.182Z,50.60
2023-12-01T10:03:37.414Z,42.40
2023-12-01T10:06:12.267Z,47.00
2023-12-01T10:08:51.996Z,56.00
2023-12-01T10:11:25.369Z,54.90
2023-12-01T10:13:56.752Z,57.40
2023-12-01T10:16:26.134Z,54.80
2023-12-01T10:19:02.794Z,57.60
2023-12-01T10:21:48.827Z,63.80
2023-12-01T10:24:24.107Z,56.70
2023-12-01T10:26:56.788Z,53.10
2023-12-01T10:29:35.191Z,61.60
2023-12-01T10:32:13.229Z,64.00
2023-12-01T10:34:56.961Z,56.10
2023-12-01T10:37:26.256Z,69.10
2023-12-01T10:39:57.823Z,57.80
2023-12-01T10:42:31.588Z,54.50
2023-12-01T10:45:03.133Z,55.80
2023-12-01T10:47:33.858Z,49.50
2023-12-01T10:50:04.081Z,52.20
2023-12-01T10:52:39.455Z,53.20
2023-12-01T10:55:08.918Z,61.70
2023-12-01T10:57:42.401Z,49.20
2023-12-01T11:00:31.886Z,49.50
2023-12-01T11:03:06.335Z,55.50
2023-12-01T11:05:38.260Z,51.50
2023-12-01T11:08:32.310Z,57.40
2023-12-01T11:11:17.176Z,59.50
2023-12-01T11:14:06.863Z,72.70
2023-12-01T11:16:36.586Z,75.80
2023-12-01T11:19:10.305Z,60.20
2023-12-01T11:21:44.156Z,52.30
2023-12-01T11:24:34.329Z,49.20
2023-12-01T11:27:09.660Z,48.80
2023-12-01T11:29:41.079Z,58.50
2023-12-01T11:32:13.071Z,60.10
2023-12-01T11:35:08.495Z,75.20
2023-12-01T11:37:56.079Z,75.40
2023-12-01T11:40:25.834Z,62.00
2023-12-01T11:43:06.267Z,70.90
2023-12-01T11:45:46.016Z,55.30
2023-12-01T11:48:15.570Z,52.30
2023-12-01T11:50:45.668Z,47.10
2023-12-01T11:53:15.240Z,49.90
2023-12-01T11:55:45.669Z,42.80
2023-12-01T11:58:20.167Z,52.30
2023-12-01T12:00:49.405Z,62.30
2023-12-01T12:03:24.209Z,86.50
2023-12-01T12:05:54.441Z,81.80
2023-12-01T12:08:24.546Z,129.80
2023-12-01T12:10:55.483Z,118.50
2023-12-01T12:13:24.593Z,84.20
2023-12-01T12:15:57.600Z,72.30
2023-12-01T12:18:30.178Z,74.40
2023-12-01T12:21:06.747Z,73.70
2023-12-01T12:23:36.717Z,70.90
2023-12-01T12:26:17.735Z,68.10
2023-12-01T12:28:59.312Z,65.40
2023-12-01T12:31:31.952Z,66.70
2023-12-01T12:34:02.487Z,69.90
2023-12-01T12:36:33.935Z,60.00
2023-12-01T12:39:05.153Z,60.60
2023-12-01T12:41:36.598Z,67.10
2023-12-01T12:44:07.707Z,54.20
2023-12-01T12:46:38.280Z,50.40
2023-12-01T12:49:12.825Z,76.20
2023-12-01T12:51:42.125Z,187.30
2023-12-01T12:54:12.111Z,131.10
2023-12-01T12:56:41.295Z,183.10
2023-12-01T12:59:09.952Z,163.40
2023-12-01T13:01:38.975Z,185.80
2023-12-01T13:04:08.372Z,133.40
2023-12-01T13:06:47.985Z,95.80
2023-12-01T13:09:19.540Z,83.40
2023-12-01T13:11:49.410Z,99.00
2023-12-01T13:14:19.070Z,106.70
2023-12-01T13:16:55.014Z,120.10
2023-12-01T13:19:26.653Z,73.00
2023-12-01T13:21:57.222Z,71.90
2023-12-01T13:24:27.289Z,65.70
2023-12-01T13:26:56.959Z,77.90
2023-12-01T13:29:26.011Z,82.60
2023-12-01T13:31:54.981Z,72.50
2023-12-01T13:34:26.445Z,67.20
2023-12-01T13:36:55.177Z,76.80
2023-12-01T13:39:24.109Z,68.90
2023-12-01T13:41:53.211Z,64.10
2023-12-01T13:44:21.908Z,64.50
2023-12-01T13:46:51.169Z,59.10
2023-12-01T13:49:20.877Z,56.50
2023-12-01T13:51:50.622Z,70.10
2023-12-01T13:54:20.047Z,68.70
2023-12-01T13:56:48.589Z,68.90
2023-12-01T13:59:17.359Z,68.70
2023-12-01T14:01:46.595Z,69.50
2023-12-01T14:04:15.466Z,69.40
2023-12-01T14:06:51.652Z,72.50
2023-12-01T14:28:05.110Z,60.80
2023-12-01T14:30:34.304Z,74.60
2023-12-01T14:33:04.891Z,84.50
2023-12-01T14:35:33.732Z,82.30
2023-12-01T14:38:04.191Z,70.30
2023-12-01T14:40:33.532Z,84.00
2023-12-01T14:43:03.809Z,101.30
2023-12-01T14:45:33.288Z,101.30
2023-12-01T14:48:02.559Z,64.80
2023-12-01T14:50:32.212Z,114.30
2023-12-01T14:53:01.195Z,62.30
2023-12-01T14:55:30.318Z,69.50
2023-12-01T14:58:02.544Z,62.90
2023-12-01T15:00:31.996Z,62.70
2023-12-01T15:03:01.346Z,65.50
2023-12-01T15:05:30.790Z,68.20
2023-12-01T15:08:02.285Z,65.50
2023-12-01T15:10:36.586Z,63.80
2023-12-01T15:13:09.156Z,70.30
2023-12-01T15:15:38.748Z,69.20
2023-12-01T15:18:11.499Z,63.00
2023-12-01T15:20:41.329Z,64.80
2023-12-01T15:23:10.773Z,59.70
2023-12-01T15:25:40.184Z,66.20
2023-12-01T15:28:09.528Z,68.30
2023-12-01T15:30:47.608Z,66.10
2023-12-01T15:33:17.316Z,62.80
2023-12-01T15:35:48.226Z,74.00
2023-12-01T15:38:17.507Z,75.00
2023-12-01T15:40:47.140Z,72.30
2023-12-01T15:43:18.682Z,79.40
2023-12-01T15:45:47.646Z,81.30
2023-12-01T15:48:24.695Z,77.40
2023-12-01T15:51:05.793Z,72.00
2023-12-01T15:53:40.602Z,71.80
2023-12-01T15:56:11.125Z,73.70
2023-12-01T15:58:42.004Z,55.60
2023-12-01T16:01:13.145Z,70.50
2023-12-01T16:03:44.695Z,70.90
2023-12-01T16:06:17.124Z,62.40
2023-12-01T16:08:48.970Z,75.70
2023-12-01T16:11:21.044Z,67.10
2023-12-01T16:13:50.831Z,75.30
2023-12-01T16:16:25.556Z,61.40
2023-12-01T16:18:58.645Z,99.30
2023-12-01T16:21:28.599Z,101.60
2023-12-01T16:24:01.201Z,122.70
2023-12-01T16:26:30.684Z,111.20
2023-12-01T16:28:59.691Z,88.00
2023-12-01T16:31:28.726Z,82.60
2023-12-01T16:33:58.303Z,76.30
2023-12-01T16:36:31.935Z,98.30
2023-12-01T16:39:02.444Z,107.40
2023-12-01T16:41:32.025Z,97.10
2023-12-01T16:44:01.552Z,130.80
2023-12-01T16:46:30.339Z,96.80
2023-12-01T16:48:59.551Z,197.20
2023-12-01T16:51:28.718Z,110.00
2023-12-01T16:53:58.271Z,111.20
2023-12-01T16:56:28.408Z,77.30
2023-12-01T16:58:58.440Z,90.00
2023-12-01T17:01:27.245Z,84.20
2023-12-01T17:03:56.402Z,80.80
2023-12-01T17:06:26.515Z,89.30
2023-12-01T17:08:57.736Z,143.70
2023-12-01T17:11:32.294Z,80.80
2023-12-01T17:14:01.691Z,81.60
2023-12-01T17:16:34.450Z,77.50
2023-12-01T17:19:03.004Z,91.40
2023-12-01T17:21:32.239Z,98.20
2023-12-01T17:24:01.261Z,87.90
2023-12-01T17:26:30.189Z,80.60
2023-12-01T17:29:10.356Z,93.00
2023-12-01T17:31:45.990Z,87.10
2023-12-01T17:34:16.024Z,93.20
2023-12-01T17:36:44.832Z,113.30
2023-12-01T17:39:14.202Z,97.00
2023-12-01T17:41:45.265Z,103.00
2023-12-01T17:44:14.577Z,85.00
2023-12-01T17:46:43.659Z,91.40
2023-12-01T17:49:12.661Z,85.20
2023-12-01T17:51:43.203Z,93.00
2023-12-01T17:54:17.342Z,77.80
2023-12-01T17:56:46.273Z,74.10
2023-12-01T17:59:15.042Z,72.90
2023-12-01T18:01:44.403Z,77.30
2023-12-01T18:04:14.172Z,85.30
2023-12-01T18:06:43.951Z,70.20
2023-12-01T18:09:13.393Z,70.60
2023-12-01T18:11:42.697Z,71.90
2023-12-01T18:14:13.180Z,79.60
2023-12-01T18:16:43.019Z,85.20
2023-12-01T18:19:15.851Z,149.70
2023-12-01T18:21:52.341Z,111.50
2023-12-01T18:24:31.242Z,88.70
2023-12-01T18:27:00.971Z,120.10
2023-12-01T18:29:31.066Z,109.40
2023-12-01T18:32:00.884Z,76.90
2023-12-01T18:34:31.732Z,94.90
2023-12-01T18:37:04.843Z,98.10
2023-12-01T18:39:35.080Z,105.80
2023-12-01T18:42:04.409Z,138.70
2023-12-01T18:44:34.085Z,159.60
2023-12-01T18:47:04.074Z,147.90
2023-12-01T18:49:34.918Z,110.60
2023-12-01T18:52:04.701Z,83.80
2023-12-01T18:54:33.815Z,67.90
2023-12-01T18:57:04.905Z,73.20
2023-12-01T18:59:34.824Z,75.10
2023-12-01T19:02:04.880Z,83.40
2023-12-01T19:04:34.211Z,90.20
2023-12-01T19:07:03.646Z,74.20
2023-12-01T19:09:32.750Z,78.00
2023-12-01T19:12:01.647Z,71.90
2023-12-01T19:14:30.699Z,84.90
2023-12-01T19:16:59.721Z,85.70
2023-12-01T19:19:29.090Z,105.80
2023-12-01T19:22:01.097Z,207.10
2023-12-01T19:24:30.386Z,125.50
2023-12-01T19:27:02.940Z,91.60
2023-12-01T19:29:33.984Z,163.10
2023-12-01T19:32:04.847Z,224.40
2023-12-01T19:34:33.491Z,124.50
2023-12-01T19:37:02.519Z,102.80
2023-12-01T19:39:42.813Z,195.20
2023-12-01T19:42:13.187Z,241.10
2023-12-01T19:44:43.760Z,179.60
2023-12-01T19:47:12.998Z,236.90
2023-12-01T19:49:43.886Z,171.60
2023-12-01T19:52:14.271Z,147.00
2023-12-01T19:54:44.207Z,251.60
2023-12-01T19:57:14.066Z,111.40
2023-12-01T19:59:44.964Z,281.70
2023-12-01T20:02:14.051Z,141.40
2023-12-01T20:04:46.147Z,185.90
2023-12-01T20:07:15.275Z,414.90
2023-12-01T20:09:44.094Z,164.40
2023-12-01T20:12:12.923Z,146.20
2023-12-01T20:14:41.729Z,188.30
2023-12-01T20:17:10.716Z,203.20
2023-12-01T20:19:40.960Z,149.20
2023-12-01T20:22:10.619Z,90.00
2023-12-01T20:24:42.037Z,171.30
2023-12-01T20:27:14.305Z,81.10
2023-12-01T20:29:44.634Z,109.90
2023-12-01T20:32:16.442Z,289.70
2023-12-01T20:34:55.478Z,218.50
2023-12-01T20:37:27.382Z,159.80
2023-12-01T20:39:57.389Z,125.80
2023-12-01T20:42:28.210Z,136.80
2023-12-01T20:44:57.730Z,161.80
2023-12-01T20:47:27.179Z,383.40
2023-12-01T20:49:56.532Z,208.30
2023-12-01T20:52:25.611Z,227.30
2023-12-01T20:54:55.044Z,130.60
2023-12-01T20:57:24.285Z,116.10
2023-12-01T20:59:53.375Z,81.70
2023-12-01T21:02:23.039Z,113.80
2023-12-01T21:04:52.493Z,82.30
2023-12-01T21:07:22.112Z,96.60
2023-12-01T21:09:51.115Z,86.40
2023-12-01T21:12:20.930Z,130.00
2023-12-01T21:14:52.467Z,108.50
2023-12-01T21:17:24.452Z,140.20
2023-12-01T21:19:53.829Z,103.30
2023-12-01T21:22:23.516Z,117.00
2023-12-01T21:24:53.184Z,127.90
2023-12-01T21:27:22.753Z,93.70
2023-12-01T21:29:52.608Z,92.60
2023-12-01T21:32:23.805Z,83.70
2023-12-01T21:35:05.718Z,114.10
2023-12-01T21:37:48.007Z,134.40
2023-12-01T21:40:17.861Z,157.20
2023-12-01T21:42:47.572Z,110.30
2023-12-01T21:45:16.925Z,85.60
2023-12-01T21:47:45.773Z,102.60
2023-12-01T21:50:17.155Z,85.60
2023-12-01T21:52:47.370Z,71.90
2023-12-01T21:55:19.245Z,68.10
2023-12-01T21:57:53.698Z,63.50
2023-12-01T22:00:23.838Z,58.60
2023-12-01T22:02:53.272Z,98.00
2023-12-01T22:05:23.033Z,67.80
2023-12-01T22:07:52.853Z,63.00
2023-12-01T22:10:22.539Z,71.30
2023-12-01T22:12:53.267Z,68.90
2023-12-01T22:15:22.606Z,63.00
2023-12-01T22:17:52.211Z,66.70
2023-12-01T22:20:22.331Z,71.90
2023-12-01T22:22:51.448Z,74.20
2023-12-01T22:25:20.152Z,61.80
2023-12-01T22:27:49.363Z,59.80
2023-12-01T22:30:18.778Z,82.90
2023-12-01T22:32:48.491Z,65.40
2023-12-01T22:35:17.522Z,98.00
2023-12-01T22:37:48.055Z,88.40
2023-12-01T22:40:19.979Z,112.50
2023-12-01T22:42:49.625Z,95.80
2023-12-01T22:45:19.796Z,74.60
2023-12-01T22:47:49.359Z,77.20
2023-12-01T22:50:19.166Z,74.40
2023-12-01T22:52:48.855Z,72.80
2023-12-01T22:55:18.550Z,71.30
2023-12-01T22:57:51.016Z,74.80
2023-12-01T23:00:32.434Z,81.90
2023-12-01T23:03:02.322Z,68.20
2023-12-01T23:05:32.184Z,74.10
2023-12-01T23:08:02.735Z,73.30
2023-12-01T23:10:33.254Z,70.70
2023-12-01T23:13:03.392Z,68.10
2023-12-01T23:15:37.113Z,64.90
2023-12-01T23:18:06.661Z,64.20
2023-12-01T23:20:41.591Z,62.80
2023-12-01T23:23:11.466Z,64.50
2023-12-01T23:25:40.887Z,64.40
2023-12-01T23:28:11.031Z,69.80
2023-12-01T23:30:42.435Z,77.90
2023-12-01T23:33:12.298Z,76.40
2023-12-01T23:35:45.211Z,70.90
2023-12-01T23:38:15.712Z,68.80
2023-12-01T23:40:46.578Z,65.40
2023-12-01T23:43:16.839Z,63.60
2023-12-01T23:45:46.804Z,68.60
2023-12-01T23:48:18.710Z,65.60
2023-12-01T23:50:51.539Z,61.80
2023-12-01T23:53:21.505Z,61.60
2023-12-01T23:55:51.889Z,72.20
2023-12-01T23:58:22.851Z,64.10
